Flight Track Log - Related Links

Times and Time Zones

All times are in EDT time to prevent confusion due to time zone crossing. See the TCF3476 flight status page for this flight to view local times or setup timezone preferences in your user account.

Time Position Orientation Groundspeed Altitude Reporting Facility
EDT Latitude Longitude Course Direction KTS MPH feet Rate Location/Type
Sun 06:13:50 AM 45.3000 -75.6833 192° South 150 173 1,400  Level Montreal Center
Sun 06:14:50 AM 45.3333 -75.7333 313° West 170 196 3,400 2,450 Climbing Montreal Center
Sun 06:15:50 AM 45.2833 -75.8000 223° Southwest 240 276 6,300 3,150 Climbing Montreal Center
Sun 06:16:00 AM 44.9846 -75.7330 190° South  Level FlightAware Approximate
Sun 06:16:50 AM 45.2167 -75.8333 199° South 280 322 9,700  Level Montreal Center
Sun 06:17:00 AM 44.8782 -75.7832 197° South  Level FlightAware Approximate
Sun 06:17:50 AM 45.1333 -75.8500 188° South 320 368 12,300  Level Montreal Center
Sun 06:18:00 AM 44.7703 -75.8266 193° South  Level FlightAware Approximate
Sun 06:18:50 AM 45.0333 -75.8667 187° South 330 380 15,200  Level Montreal Center
Sun 06:19:00 AM 44.6848 -75.8913 192° South  Level FlightAware Approximate
Sun 06:19:50 AM 44.9500 -75.9000 196° South 350 403 18,200  Level Montreal Center
Sun 06:20:50 AM 44.8500 -75.9500 200° South 350 403 20,700 2,500 Climbing Montreal Center
Sun 06:21:50 AM 44.7500 -75.9667 187° South 350 403 23,200 2,100 Climbing Montreal Center
Sun 06:22:50 AM 44.6500 -76.0000 193° South 360 414 24,900 1,750 Climbing Montreal Center
Sun 06:23:50 AM 44.5500 -76.0000 180° South 380 437 26,700 1,850 Climbing Montreal Center
Sun 06:24:50 AM 44.4333 -76.0167 186° South 390 449 28,600 1,650 Climbing Montreal Center
Sun 06:25:50 AM 44.3333 -76.0167 180° South 390 449 30,000 700 Climbing Montreal Center
Sun 06:26:50 AM 44.2167 -76.0333 186° South 400 460 30,000  Level Montreal Center
Sun 06:27:50 AM 44.1167 -76.0667 193° South 390 449 30,000  Level Montreal Center
Sun 06:28:50 AM 44.0000 -76.0667 180° South 400 460 30,000  Level Montreal Center
Sun 06:29:50 AM 43.8833 -76.0833 186° South 400 460 30,000  Level Montreal Center
Sun 06:30:50 AM 43.7833 -76.1000 187° South 400 460 30,000  Level Montreal Center
Sun 06:31:50 AM 43.6667 -76.1333 192° South 390 449 30,000  Level Montreal Center
Sun 06:32:50 AM 43.5667 -76.1333 180° South 390 449 30,000  Level Montreal Center
Sun 06:33:50 AM 43.4500 -76.1500 186° South 390 449 30,000  Level Montreal Center
Sun 06:34:50 AM 43.3500 -76.1833 194° South 390 449 30,000  Level Montreal Center
Sun 06:35:50 AM 43.2333 -76.2000 186° South 390 449 30,000  Level Montreal Center
Sun 06:37:03 AM 43.1336 -76.2303 192° South 406 467 30,000  Level Boston Center
Sun 06:39:28 AM 42.9244 -76.4033 211° Southwest 368 423 30,000  Level Cleveland Center
Sun 06:40:28 AM 42.8375 -76.4744 211° Southwest 368 423 30,000  Level Cleveland Center
Sun 06:41:28 AM 42.7522 -76.5450 211° Southwest 368 423 30,000  Level Cleveland Center
Sun 06:42:27 AM 42.6664 -76.6122 210° Southwest 385 443 30,000  Level New York Center
Sun 06:43:27 AM 42.5733 -76.6883 211° Southwest 385 443 30,000  Level New York Center
Sun 06:44:28 AM 42.4864 -76.7594 211° Southwest 380 437 30,000  Level New York Center
Sun 06:45:29 AM 42.3997 -76.8300 211° Southwest 375 432 30,000 -50 Level New York Center
Sun 06:46:27 AM 42.3150 -76.8981 211° Southwest 375 432 29,900 -400 Descending New York Center
Sun 06:47:29 AM 42.2306 -76.9628 210° Southwest 375 432 29,200 -942 Descending New York Center
Sun 06:48:28 AM 42.1478 -77.0306 211° Southwest 369 425 28,000 -1,190 Descending New York Center
Sun 06:49:30 AM 42.0650 -77.0983 211° Southwest 364 419 26,800 -950 Descending New York Center
Sun 06:50:28 AM 41.9825 -77.1628 210° Southwest 353 406 26,100 -403 Descending New York Center
Sun 06:51:29 AM 41.9019 -77.2278 211° Southwest 353 406 26,000 -50 Descending New York Center
Sun 06:52:27 AM 41.8217 -77.2894 210° Southwest 348 400 26,000  Level New York Center
Sun 06:53:29 AM 41.7431 -77.3539 211° Southwest 348 400 26,000  Level New York Center
Sun 06:54:30 AM 41.6625 -77.4156 210° Southwest 343 395 26,000  Level New York Center
Sun 06:55:28 AM 41.5764 -77.4681 205° Southwest 343 395 26,000  Level New York Center
Sun 06:56:28 AM 41.4728 -77.4550 175° South 347 399 26,000  Level New York Center
Sun 06:57:28 AM 41.3675 -77.4389 173° South 362 417 26,000  Level New York Center
Sun 06:58:29 AM 41.2639 -77.4258 175° South 372 428 26,000 -149 Level New York Center
Sun 06:59:29 AM 41.1608 -77.4103 174° South 377 434 25,700 -454 Descending New York Center
Sun 07:00:28 AM 41.0553 -77.3972 175° South 382 440 25,100 -706 Descending New York Center
Sun 07:01:28 AM 40.9539 -77.3844 175° South 382 440 24,300 -942 Descending New York Center
Sun 07:02:29 AM 40.8522 -77.3719 175° South 377 434 23,200 -1,150 Descending New York Center
Sun 07:03:28 AM 40.7531 -77.3597 175° South 377 434 22,000 -1,563 Descending New York Center
Sun 07:04:28 AM 40.6517 -77.3472 175° South 371 427 20,100 -1,835 Descending New York Center
Sun 07:05:29 AM 40.5625 -77.3361 175° South 364 419 18,300 -1,041 Descending New York Center
Sun 07:06:29 AM 40.4550 -77.3203 174° South 359 413 18,000 -200 Descending New York Center
Sun 07:07:29 AM 40.3783 -77.3131 176° South 334 384 17,900 -559 Descending New York Center
Sun 07:09:53 AM 40.1500 -77.2667 171° South 326 375 16,100 -853 Descending Potomac TRACON
Sun 07:10:53 AM 40.0667 -77.2333 163° South 328 377 15,000 -1,053 Descending Potomac TRACON
Sun 07:11:47 AM 39.9833 -77.2167 171° South 309 356 14,100 -936 Descending Potomac TRACON
Sun 07:12:42 AM 39.9167 -77.2167 180° South 304 350 13,300 -574 Descending Potomac TRACON
Sun 07:13:42 AM 39.8333 -77.2167 180° South 302 348 13,000 -150 Descending Potomac TRACON
Sun 07:14:42 AM 39.7500 -77.2167 180° South 303 349 13,000 -632 Level Potomac TRACON
Sun 07:15:36 AM 39.6833 -77.2500 201° Southwest 286 329 11,800 -1,421 Descending Potomac TRACON
Sun 07:16:36 AM 39.6333 -77.3167 226° Southwest 278 320 10,300 -1,400 Descending Potomac TRACON
Sun 07:17:36 AM 39.5500 -77.3500 197° South 282 325 9,000 -1,211 Descending Potomac TRACON
Sun 07:18:30 AM 39.4833 -77.3500 180° South 280 322 8,000 -1,053 Descending Potomac TRACON
Sun 07:19:30 AM 39.4000 -77.3667 189° South 276 318 7,000 -1,050 Descending Potomac TRACON
Sun 07:20:30 AM 39.3333 -77.3667 180° South 273 314 5,900 -1,053 Descending Potomac TRACON
Sun 07:21:24 AM 39.2667 -77.3667 180° South 276 318 5,000 -881 Descending Potomac TRACON
Sun 07:22:19 AM 39.2000 -77.3667 180° South 275 316 4,300 -474 Descending Potomac TRACON
Sun 07:23:18 AM 39.1167 -77.3500 171° South 274 315 4,100 -200 Descending Potomac TRACON
Sun 07:24:19 AM 39.0333 -77.3500 180° South 276 318 3,900 -496 Descending Potomac TRACON
Sun 07:25:19 AM 38.9667 -77.3500 180° South 280 322 3,100 -400 Descending Potomac TRACON
Sun 07:26:19 AM 38.8833 -77.3500 180° South 272 313 3,100 -50 Level Potomac TRACON
Sun 07:27:20 AM 38.8167 -77.3667 191° South 230 265 3,000 -298 Descending Potomac TRACON
Sun 07:28:20 AM 38.8167 -77.4167 270° West 187 215 2,500 -500 Descending Potomac TRACON

Login

Don't have an account? Register now (free) for customized features, flight alerts, and more!